NCAR-RAP Real-Time Weather Data

Output produced by METARs form (06 May 2021  16:01 UTC)
found at http://weather.rap.ucar.edu/surface/
 
KMIE 061553Z 22009KT 10SM FEW080 SCT095 16/00 A3010 RMK AO2 SLP190 T01560000
KMIE 061453Z 19006KT 10SM CLR 14/02 A3012 RMK AO2 SLP198 T01390017 58003
KMIE 061353Z 19005KT 10SM CLR 12/02 A3013 RMK AO2 SLP202 T01170022
KMIE 061253Z 00000KT 10SM SCT120 09/01 A3014 RMK AO2 SLP205 T00940011
KMIE 061153Z 00000KT 10SM CLR 07/03 A3013 RMK AO2 SLP201 T00720033 10072 20044 55001
KMIE 061053Z 12004KT 10SM SCT110 06/02 A3012 RMK AO2 SLP196 T00610022
KMIE 060953Z AUTO 00000KT 10SM CLR 06/01 A3013 RMK AO2 SLP201 T00610006
KMIE 060853Z AUTO 00000KT 10SM CLR 05/01 A3013 RMK AO2 SLP203 T00500006 55007
KMIE 060753Z AUTO 00000KT 10SM CLR 05/00 A3013 RMK AO2 SLP200 T00500000
KMIE 060653Z AUTO 00000KT 10SM CLR 06/01 A3013 RMK AO2 SLP202 T00560006
KMIE 060553Z AUTO 25003KT 10SM CLR 06/00 A3016 RMK AO2 SLP210 T00560000 10144 20056 53003
KMIE 060453Z AUTO 00000KT 10SM CLR 07/00 A3015 RMK AO2 SLP208 T00720000 401670067
KMIE 060353Z AUTO 32003KT 10SM CLR 08/01 A3015 RMK AO2 SLP209 T00780011
KMIE 060253Z AUTO 36005KT 10SM CLR 08/01 A3015 RMK AO2 SLP207 T00830006 50014
KMIE 060153Z 32007KT 10SM CLR 10/01 A3015 RMK AO2 SLP207 T01000006
KMIE 060053Z 35008KT 10SM CLR 12/01 A3013 RMK AO2 SLP200 T01170006